sensor_id;sensor_type;location;lat;lon;timestamp;temperature;humidity
21778;DHT22;11050;52.222;20.916;2023-02-03T00:01:32;1.00;99.90
21778;DHT22;11050;52.222;20.916;2023-02-03T00:03:58;1.00;99.90
21778;DHT22;11050;52.222;20.916;2023-02-03T00:06:24;1.00;99.90
21778;DHT22;11050;52.222;20.916;2023-02-03T00:08:53;1.00;99.90
21778;DHT22;11050;52.222;20.916;2023-02-03T00:11:21;0.90;99.90
21778;DHT22;11050;52.222;20.916;2023-02-03T00:13:47;0.90;99.90
21778;DHT22;11050;52.222;20.916;2023-02-03T00:16:13;0.80;99.90
21778;DHT22;11050;52.222;20.916;2023-02-03T00:18:39;0.80;99.90
21778;DHT22;11050;52.222;20.916;2023-02-03T00:21:05;0.70;99.90
21778;DHT22;11050;52.222;20.916;2023-02-03T00:23:31;0.60;99.90
21778;DHT22;11050;52.222;20.916;2023-02-03T00:26:07;0.60;99.90
21778;DHT22;11050;52.222;20.916;2023-02-03T00:28:36;0.50;99.90
21778;DHT22;11050;52.222;20.916;2023-02-03T00:31:02;0.50;99.90
21778;DHT22;11050;52.222;20.916;2023-02-03T00:33:27;0.40;99.90
21778;DHT22;11050;52.222;20.916;2023-02-03T00:35:53;0.40;99.90
21778;DHT22;11050;52.222;20.916;2023-02-03T00:38:20;0.30;99.90
21778;DHT22;11050;52.222;20.916;2023-02-03T00:40:52;0.20;99.90
21778;DHT22;11050;52.222;20.916;2023-02-03T00:43:25;0.20;99.90
21778;DHT22;11050;52.222;20.916;2023-02-03T00:45:50;0.10;99.90
21778;DHT22;11050;52.222;20.916;2023-02-03T00:48:16;0.10;99.90
21778;DHT22;11050;52.222;20.916;2023-02-03T00:50:45;0.00;99.90
21778;DHT22;11050;52.222;20.916;2023-02-03T00:53:12;0.00;99.90
21778;DHT22;11050;52.222;20.916;2023-02-03T00:55:38;0.00;99.90
21778;DHT22;11050;52.222;20.916;2023-02-03T00:58:03;0.00;99.90
21778;DHT22;11050;52.222;20.916;2023-02-03T01:00:29;-0.10;99.90
21778;DHT22;11050;52.222;20.916;2023-02-03T01:02:55;-0.10;99.90
21778;DHT22;11050;52.222;20.916;2023-02-03T01:05:22;-0.10;99.90
21778;DHT22;11050;52.222;20.916;2023-02-03T01:07:48;-0.10;99.90
21778;DHT22;11050;52.222;20.916;2023-02-03T01:10:14;-0.10;99.90
21778;DHT22;11050;52.222;20.916;2023-02-03T01:12:40;-0.10;99.90
21778;DHT22;11050;52.222;20.916;2023-02-03T01:15:06;-0.10;99.90
21778;DHT22;11050;52.222;20.916;2023-02-03T01:17:32;0.00;99.90
21778;DHT22;11050;52.222;20.916;2023-02-03T01:19:58;0.00;99.90
21778;DHT22;11050;52.222;20.916;2023-02-03T01:22:23;0.10;99.90
21778;DHT22;11050;52.222;20.916;2023-02-03T01:24:49;0.10;99.90
21778;DHT22;11050;52.222;20.916;2023-02-03T01:27:15;0.20;99.90
21778;DHT22;11050;52.222;20.916;2023-02-03T01:29:41;0.20;99.90
21778;DHT22;11050;52.222;20.916;2023-02-03T01:32:06;0.30;99.90
21778;DHT22;11050;52.222;20.916;2023-02-03T01:34:32;0.30;99.90
21778;DHT22;11050;52.222;20.916;2023-02-03T01:36:58;0.30;99.90
21778;DHT22;11050;52.222;20.916;2023-02-03T01:39:24;0.40;99.90
21778;DHT22;11050;52.222;20.916;2023-02-03T01:41:51;0.40;99.90
21778;DHT22;11050;52.222;20.916;2023-02-03T01:44:44;0.40;99.90
21778;DHT22;11050;52.222;20.916;2023-02-03T01:47:26;0.40;99.90
21778;DHT22;11050;52.222;20.916;2023-02-03T01:50:05;0.40;99.90
21778;DHT22;11050;52.222;20.916;2023-02-03T01:52:46;0.40;99.90
21778;DHT22;11050;52.222;20.916;2023-02-03T01:55:20;0.40;99.90
21778;DHT22;11050;52.222;20.916;2023-02-03T01:58:03;0.40;99.90
21778;DHT22;11050;52.222;20.916;2023-02-03T02:00:40;0.40;99.90
21778;DHT22;11050;52.222;20.916;2023-02-03T02:03:08;0.40;99.90
21778;DHT22;11050;52.222;20.916;2023-02-03T02:08:14;0.40;99.90
21778;DHT22;11050;52.222;20.916;2023-02-03T02:10:43;0.40;99.90
21778;DHT22;11050;52.222;20.916;2023-02-03T02:13:10;0.40;99.90
21778;DHT22;11050;52.222;20.916;2023-02-03T02:45:59;0.10;99.90
21778;DHT22;11050;52.222;20.916;2023-02-03T02:48:40;0.00;99.90
21778;DHT22;11050;52.222;20.916;2023-02-03T02:51:20;-0.10;99.90
21778;DHT22;11050;52.222;20.916;2023-02-03T02:53:54;-0.20;99.90
21778;DHT22;11050;52.222;20.916;2023-02-03T02:56:24;-0.20;99.90
21778;DHT22;11050;52.222;20.916;2023-02-03T02:58:54;-0.30;99.90
21778;DHT22;11050;52.222;20.916;2023-02-03T03:01:22;-0.40;99.90
21778;DHT22;11050;52.222;20.916;2023-02-03T03:03:48;-0.40;99.90
21778;DHT22;11050;52.222;20.916;2023-02-03T03:06:29;-0.50;99.90
21778;DHT22;11050;52.222;20.916;2023-02-03T03:09:14;-0.50;99.90
21778;DHT22;11050;52.222;20.916;2023-02-03T03:11:52;-0.60;99.90
21778;DHT22;11050;52.222;20.916;2023-02-03T03:14:25;-0.60;99.90
21778;DHT22;11050;52.222;20.916;2023-02-03T03:16:58;-0.60;99.90
21778;DHT22;11050;52.222;20.916;2023-02-03T03:19:33;-0.70;99.90
21778;DHT22;11050;52.222;20.916;2023-02-03T03:22:06;-0.70;99.90
21778;DHT22;11050;52.222;20.916;2023-02-03T03:24:49;-0.80;99.90
21778;DHT22;11050;52.222;20.916;2023-02-03T03:27:22;-0.80;99.90
21778;DHT22;11050;52.222;20.916;2023-02-03T03:30:00;-0.80;99.90
21778;DHT22;11050;52.222;20.916;2023-02-03T03:32:31;-0.90;99.90
21778;DHT22;11050;52.222;20.916;2023-02-03T03:35:01;-0.90;99.90
21778;DHT22;11050;52.222;20.916;2023-02-03T03:37:37;-0.90;99.90
21778;DHT22;11050;52.222;20.916;2023-02-03T03:40:11;-0.90;99.90
21778;DHT22;11050;52.222;20.916;2023-02-03T03:42:49;-0.90;99.90
21778;DHT22;11050;52.222;20.916;2023-02-03T03:45:42;-1.00;99.90
21778;DHT22;11050;52.222;20.916;2023-02-03T03:51:34;-1.00;99.90
21778;DHT22;11050;52.222;20.916;2023-02-03T03:54:07;-1.10;99.90
21778;DHT22;11050;52.222;20.916;2023-02-03T03:56:48;-1.10;99.90
21778;DHT22;11050;52.222;20.916;2023-02-03T03:59:21;-1.10;99.90
21778;DHT22;11050;52.222;20.916;2023-02-03T04:01:50;-1.10;99.90
21778;DHT22;11050;52.222;20.916;2023-02-03T04:04:17;-1.20;99.90
21778;DHT22;11050;52.222;20.916;2023-02-03T04:06:45;-1.20;99.90
21778;DHT22;11050;52.222;20.916;2023-02-03T04:09:11;-1.20;99.90
21778;DHT22;11050;52.222;20.916;2023-02-03T04:11:36;-1.20;99.90
21778;DHT22;11050;52.222;20.916;2023-02-03T04:14:21;-1.30;99.90
21778;DHT22;11050;52.222;20.916;2023-02-03T04:16:47;-1.30;99.90
21778;DHT22;11050;52.222;20.916;2023-02-03T04:19:12;-1.30;99.90
21778;DHT22;11050;52.222;20.916;2023-02-03T04:21:38;-1.30;99.90
21778;DHT22;11050;52.222;20.916;2023-02-03T04:24:04;-1.30;99.90
21778;DHT22;11050;52.222;20.916;2023-02-03T04:26:30;-1.30;99.90
21778;DHT22;11050;52.222;20.916;2023-02-03T04:28:56;-1.40;99.90
21778;DHT22;11050;52.222;20.916;2023-02-03T04:31:21;-1.40;99.90
21778;DHT22;11050;52.222;20.916;2023-02-03T04:33:47;-1.40;99.90
21778;DHT22;11050;52.222;20.916;2023-02-03T04:36:13;-1.40;99.90
21778;DHT22;11050;52.222;20.916;2023-02-03T04:38:39;-1.40;99.90
21778;DHT22;11050;52.222;20.916;2023-02-03T04:41:05;-1.40;99.90
21778;DHT22;11050;52.222;20.916;2023-02-03T04:43:31;-1.40;99.90
21778;DHT22;11050;52.222;20.916;2023-02-03T04:45:58;-1.40;99.90
21778;DHT22;11050;52.222;20.916;2023-02-03T04:48:25;-1.50;99.90
21778;DHT22;11050;52.222;20.916;2023-02-03T04:50:51;-1.40;99.90
21778;DHT22;11050;52.222;20.916;2023-02-03T04:53:17;-1.50;99.90
21778;DHT22;11050;52.222;20.916;2023-02-03T04:55:47;-1.40;99.90
21778;DHT22;11050;52.222;20.916;2023-02-03T04:58:13;-1.40;99.90
21778;DHT22;11050;52.222;20.916;2023-02-03T05:00:38;-1.40;99.90
21778;DHT22;11050;52.222;20.916;2023-02-03T05:03:04;-1.50;99.90
21778;DHT22;11050;52.222;20.916;2023-02-03T05:05:30;-1.50;99.90
21778;DHT22;11050;52.222;20.916;2023-02-03T05:07:56;-1.50;99.90
21778;DHT22;11050;52.222;20.916;2023-02-03T05:10:21;-1.50;99.90
21778;DHT22;11050;52.222;20.916;2023-02-03T05:12:47;-1.40;99.90
21778;DHT22;11050;52.222;20.916;2023-02-03T05:15:13;-1.50;99.90
21778;DHT22;11050;52.222;20.916;2023-02-03T05:17:39;-1.40;99.90
21778;DHT22;11050;52.222;20.916;2023-02-03T05:20:06;-1.40;99.90
21778;DHT22;11050;52.222;20.916;2023-02-03T05:22:32;-1.40;99.90
21778;DHT22;11050;52.222;20.916;2023-02-03T05:25:00;-1.50;99.90
21778;DHT22;11050;52.222;20.916;2023-02-03T05:27:27;-1.50;99.90
21778;DHT22;11050;52.222;20.916;2023-02-03T05:29:52;-1.50;99.90
21778;DHT22;11050;52.222;20.916;2023-02-03T05:32:18;-1.50;99.90
21778;DHT22;11050;52.222;20.916;2023-02-03T05:34:44;-1.50;99.90
21778;DHT22;11050;52.222;20.916;2023-02-03T05:37:09;-1.50;99.90
21778;DHT22;11050;52.222;20.916;2023-02-03T05:39:35;-1.50;99.90
21778;DHT22;11050;52.222;20.916;2023-02-03T05:42:01;-1.50;99.90
21778;DHT22;11050;52.222;20.916;2023-02-03T05:44:28;-1.50;99.90
21778;DHT22;11050;52.222;20.916;2023-02-03T05:46:56;-1.50;99.90
21778;DHT22;11050;52.222;20.916;2023-02-03T05:49:24;-1.50;99.90
21778;DHT22;11050;52.222;20.916;2023-02-03T05:51:51;-1.60;99.90
21778;DHT22;11050;52.222;20.916;2023-02-03T05:54:18;-1.60;99.90
21778;DHT22;11050;52.222;20.916;2023-02-03T05:56:43;-1.60;99.90
21778;DHT22;11050;52.222;20.916;2023-02-03T05:59:09;-1.60;99.90
21778;DHT22;11050;52.222;20.916;2023-02-03T06:01:35;-1.60;99.90
21778;DHT22;11050;52.222;20.916;2023-02-03T06:04:02;-1.60;99.90
21778;DHT22;11050;52.222;20.916;2023-02-03T06:06:29;-1.60;99.90
21778;DHT22;11050;52.222;20.916;2023-02-03T06:09:05;-1.60;99.90
21778;DHT22;11050;52.222;20.916;2023-02-03T06:11:33;-1.60;99.90
21778;DHT22;11050;52.222;20.916;2023-02-03T06:14:00;-1.50;99.90
21778;DHT22;11050;52.222;20.916;2023-02-03T06:16:27;-1.50;99.90
21778;DHT22;11050;52.222;20.916;2023-02-03T06:18:54;-1.50;99.90
21778;DHT22;11050;52.222;20.916;2023-02-03T06:21:25;-1.50;99.90
21778;DHT22;11050;52.222;20.916;2023-02-03T06:23:51;-1.50;99.90
21778;DHT22;11050;52.222;20.916;2023-02-03T06:26:16;-1.50;99.90
21778;DHT22;11050;52.222;20.916;2023-02-03T06:28:42;-1.40;99.90
21778;DHT22;11050;52.222;20.916;2023-02-03T06:31:08;-1.40;99.90
21778;DHT22;11050;52.222;20.916;2023-02-03T06:33:33;-1.50;99.90
21778;DHT22;11050;52.222;20.916;2023-02-03T06:35:59;-1.40;99.90
21778;DHT22;11050;52.222;20.916;2023-02-03T06:38:25;-1.40;99.90
21778;DHT22;11050;52.222;20.916;2023-02-03T06:40:51;-1.40;99.90
21778;DHT22;11050;52.222;20.916;2023-02-03T06:43:16;-1.40;99.90
21778;DHT22;11050;52.222;20.916;2023-02-03T06:45:45;-1.40;99.90
21778;DHT22;11050;52.222;20.916;2023-02-03T06:48:11;-1.30;99.90
21778;DHT22;11050;52.222;20.916;2023-02-03T06:50:37;-1.30;99.90
21778;DHT22;11050;52.222;20.916;2023-02-03T06:53:03;-1.30;99.90
21778;DHT22;11050;52.222;20.916;2023-02-03T06:55:29;-1.20;99.90
21778;DHT22;11050;52.222;20.916;2023-02-03T06:57:55;-1.20;99.90
21778;DHT22;11050;52.222;20.916;2023-02-03T07:00:21;-1.20;99.90
21778;DHT22;11050;52.222;20.916;2023-02-03T07:02:53;-1.10;99.90
21778;DHT22;11050;52.222;20.916;2023-02-03T07:05:20;-1.10;99.90
21778;DHT22;11050;52.222;20.916;2023-02-03T07:07:48;-1.00;99.90
21778;DHT22;11050;52.222;20.916;2023-02-03T07:10:14;-1.00;99.90
21778;DHT22;11050;52.222;20.916;2023-02-03T07:12:40;-1.00;99.90
21778;DHT22;11050;52.222;20.916;2023-02-03T07:15:07;-0.90;99.90
21778;DHT22;11050;52.222;20.916;2023-02-03T07:17:33;-0.90;99.90
21778;DHT22;11050;52.222;20.916;2023-02-03T07:19:59;-0.80;99.90
21778;DHT22;11050;52.222;20.916;2023-02-03T07:22:25;-0.80;99.90
21778;DHT22;11050;52.222;20.916;2023-02-03T07:24:50;-0.70;99.90
21778;DHT22;11050;52.222;20.916;2023-02-03T07:27:16;-0.70;99.90
21778;DHT22;11050;52.222;20.916;2023-02-03T07:29:43;-0.60;99.90
21778;DHT22;11050;52.222;20.916;2023-02-03T07:32:09;-0.60;99.90
21778;DHT22;11050;52.222;20.916;2023-02-03T07:34:35;-0.50;99.90
21778;DHT22;11050;52.222;20.916;2023-02-03T07:37:00;-0.50;99.90
21778;DHT22;11050;52.222;20.916;2023-02-03T07:39:26;-0.50;99.90
21778;DHT22;11050;52.222;20.916;2023-02-03T07:41:52;-0.40;99.90
21778;DHT22;11050;52.222;20.916;2023-02-03T07:44:18;-0.30;99.90
21778;DHT22;11050;52.222;20.916;2023-02-03T07:46:43;-0.30;99.90
21778;DHT22;11050;52.222;20.916;2023-02-03T07:49:13;-0.30;99.90
21778;DHT22;11050;52.222;20.916;2023-02-03T07:51:39;-0.20;99.90
21778;DHT22;11050;52.222;20.916;2023-02-03T07:54:05;-0.10;99.90
21778;DHT22;11050;52.222;20.916;2023-02-03T07:56:31;-0.10;99.90
21778;DHT22;11050;52.222;20.916;2023-02-03T07:59:00;-0.10;99.90
21778;DHT22;11050;52.222;20.916;2023-02-03T08:01:27;0.00;99.90
21778;DHT22;11050;52.222;20.916;2023-02-03T08:03:53;0.00;99.90
21778;DHT22;11050;52.222;20.916;2023-02-03T08:06:18;0.10;99.90
21778;DHT22;11050;52.222;20.916;2023-02-03T08:08:44;0.20;99.90
21778;DHT22;11050;52.222;20.916;2023-02-03T08:11:10;0.20;99.90
21778;DHT22;11050;52.222;20.916;2023-02-03T08:13:36;0.30;99.90
21778;DHT22;11050;52.222;20.916;2023-02-03T08:16:02;0.40;99.90
21778;DHT22;11050;52.222;20.916;2023-02-03T08:18:28;0.40;99.90
21778;DHT22;11050;52.222;20.916;2023-02-03T08:20:53;0.40;99.90
21778;DHT22;11050;52.222;20.916;2023-02-03T08:23:19;0.50;99.90
21778;DHT22;11050;52.222;20.916;2023-02-03T08:25:50;0.50;99.90
21778;DHT22;11050;52.222;20.916;2023-02-03T08:28:17;0.60;99.90
21778;DHT22;11050;52.222;20.916;2023-02-03T08:30:42;0.70;99.90
21778;DHT22;11050;52.222;20.916;2023-02-03T08:33:08;0.80;99.90
21778;DHT22;11050;52.222;20.916;2023-02-03T08:35:34;0.80;99.90
21778;DHT22;11050;52.222;20.916;2023-02-03T08:38:00;0.90;99.90
21778;DHT22;11050;52.222;20.916;2023-02-03T08:40:25;0.90;99.90
21778;DHT22;11050;52.222;20.916;2023-02-03T08:42:51;1.00;99.90
21778;DHT22;11050;52.222;20.916;2023-02-03T08:45:17;1.00;99.90
21778;DHT22;11050;52.222;20.916;2023-02-03T08:47:43;1.00;99.90
21778;DHT22;11050;52.222;20.916;2023-02-03T08:50:09;1.10;99.90
21778;DHT22;11050;52.222;20.916;2023-02-03T08:52:35;1.20;99.90
21778;DHT22;11050;52.222;20.916;2023-02-03T08:55:01;1.20;99.90
21778;DHT22;11050;52.222;20.916;2023-02-03T08:57:34;1.30;99.90
21778;DHT22;11050;52.222;20.916;2023-02-03T09:00:01;1.30;99.90
21778;DHT22;11050;52.222;20.916;2023-02-03T09:02:27;1.30;99.90
21778;DHT22;11050;52.222;20.916;2023-02-03T09:04:53;1.40;99.90
21778;DHT22;11050;52.222;20.916;2023-02-03T09:07:19;1.40;99.90
21778;DHT22;11050;52.222;20.916;2023-02-03T09:09:45;1.50;99.90
21778;DHT22;11050;52.222;20.916;2023-02-03T09:12:11;1.50;99.90
21778;DHT22;11050;52.222;20.916;2023-02-03T09:14:37;1.60;99.90
21778;DHT22;11050;52.222;20.916;2023-02-03T09:17:04;1.60;99.90
21778;DHT22;11050;52.222;20.916;2023-02-03T09:19:32;1.70;99.90
21778;DHT22;11050;52.222;20.916;2023-02-03T09:21:58;1.70;99.90
21778;DHT22;11050;52.222;20.916;2023-02-03T09:24:24;1.70;99.90
21778;DHT22;11050;52.222;20.916;2023-02-03T09:26:50;1.80;99.90
21778;DHT22;11050;52.222;20.916;2023-02-03T09:29:16;1.80;99.90
21778;DHT22;11050;52.222;20.916;2023-02-03T09:31:42;1.80;99.90
21778;DHT22;11050;52.222;20.916;2023-02-03T09:34:08;1.80;99.90
21778;DHT22;11050;52.222;20.916;2023-02-03T09:36:34;1.90;99.90
21778;DHT22;11050;52.222;20.916;2023-02-03T09:39:01;1.90;99.90
21778;DHT22;11050;52.222;20.916;2023-02-03T09:44:09;1.90;99.90
21778;DHT22;11050;52.222;20.916;2023-02-03T09:46:44;1.90;99.90
21778;DHT22;11050;52.222;20.916;2023-02-03T09:58:12;2.00;99.90
21778;DHT22;11050;52.222;20.916;2023-02-03T10:00:47;2.10;99.90
21778;DHT22;11050;52.222;20.916;2023-02-03T10:22:42;2.30;99.90
21778;DHT22;11050;52.222;20.916;2023-02-03T10:25:31;2.40;99.90
21778;DHT22;11050;52.222;20.916;2023-02-03T10:28:19;2.50;99.90
21778;DHT22;11050;52.222;20.916;2023-02-03T10:31:00;2.60;99.90
21778;DHT22;11050;52.222;20.916;2023-02-03T10:33:32;2.70;99.90
21778;DHT22;11050;52.222;20.916;2023-02-03T10:36:20;2.80;99.90
21778;DHT22;11050;52.222;20.916;2023-02-03T10:41:34;2.90;99.90
21778;DHT22;11050;52.222;20.916;2023-02-03T10:44:04;2.90;99.90
21778;DHT22;11050;52.222;20.916;2023-02-03T10:46:37;2.80;99.90
21778;DHT22;11050;52.222;20.916;2023-02-03T10:49:08;2.90;99.90
21778;DHT22;11050;52.222;20.916;2023-02-03T10:51:39;2.90;99.90
21778;DHT22;11050;52.222;20.916;2023-02-03T10:57:11;2.80;99.90
21778;DHT22;11050;52.222;20.916;2023-02-03T10:59:41;2.80;99.90
21778;DHT22;11050;52.222;20.916;2023-02-03T11:02:27;2.80;99.90
21778;DHT22;11050;52.222;20.916;2023-02-03T11:07:42;2.70;99.90
21778;DHT22;11050;52.222;20.916;2023-02-03T11:10:34;2.70;99.90
21778;DHT22;11050;52.222;20.916;2023-02-03T11:13:18;2.60;99.90
21778;DHT22;11050;52.222;20.916;2023-02-03T11:15:57;2.60;99.90
21778;DHT22;11050;52.222;20.916;2023-02-03T11:26:54;2.50;99.90
21778;DHT22;11050;52.222;20.916;2023-02-03T11:29:27;2.40;99.90
21778;DHT22;11050;52.222;20.916;2023-02-03T11:32:19;2.40;99.90
21778;DHT22;11050;52.222;20.916;2023-02-03T11:35:01;2.40;99.90
21778;DHT22;11050;52.222;20.916;2023-02-03T11:37:41;2.40;99.90
21778;DHT22;11050;52.222;20.916;2023-02-03T11:42:38;2.50;99.90
21778;DHT22;11050;52.222;20.916;2023-02-03T11:47:46;2.60;99.90
21778;DHT22;11050;52.222;20.916;2023-02-03T11:59:14;2.60;99.90
21778;DHT22;11050;52.222;20.916;2023-02-03T12:04:33;2.60;99.90
21778;DHT22;11050;52.222;20.916;2023-02-03T12:15:30;2.60;99.90
21778;DHT22;11050;52.222;20.916;2023-02-03T12:21:43;2.60;99.90
21778;DHT22;11050;52.222;20.916;2023-02-03T12:29:41;2.60;99.90
21778;DHT22;11050;52.222;20.916;2023-02-03T12:35:17;2.50;99.90
21778;DHT22;11050;52.222;20.916;2023-02-03T12:40:59;2.50;99.90
21778;DHT22;11050;52.222;20.916;2023-02-03T12:51:44;2.30;99.90
21778;DHT22;11050;52.222;20.916;2023-02-03T12:54:42;2.20;99.90
21778;DHT22;11050;52.222;20.916;2023-02-03T13:02:51;2.10;99.90
21778;DHT22;11050;52.222;20.916;2023-02-03T13:05:32;2.00;99.90
21778;DHT22;11050;52.222;20.916;2023-02-03T13:08:15;2.00;99.90
21778;DHT22;11050;52.222;20.916;2023-02-03T13:11:01;1.90;99.90
21778;DHT22;11050;52.222;20.916;2023-02-03T13:13:53;1.80;99.90
21778;DHT22;11050;52.222;20.916;2023-02-03T13:16:29;1.80;99.90
21778;DHT22;11050;52.222;20.916;2023-02-03T13:19:04;1.70;99.90
21778;DHT22;11050;52.222;20.916;2023-02-03T13:21:35;1.70;99.90
21778;DHT22;11050;52.222;20.916;2023-02-03T13:24:03;1.60;99.90
21778;DHT22;11050;52.222;20.916;2023-02-03T13:32:37;1.50;99.90
21778;DHT22;11050;52.222;20.916;2023-02-03T13:38:34;1.30;99.90
21778;DHT22;11050;52.222;20.916;2023-02-03T13:43:50;1.20;99.90
21778;DHT22;11050;52.222;20.916;2023-02-03T13:46:23;1.10;99.90
21778;DHT22;11050;52.222;20.916;2023-02-03T13:48:53;1.10;99.90
21778;DHT22;11050;52.222;20.916;2023-02-03T13:51:27;1.00;99.90
21778;DHT22;11050;52.222;20.916;2023-02-03T13:54:05;1.00;99.90
21778;DHT22;11050;52.222;20.916;2023-02-03T13:56:33;0.90;99.90
21778;DHT22;11050;52.222;20.916;2023-02-03T13:59:27;0.90;99.90
21778;DHT22;11050;52.222;20.916;2023-02-03T14:07:45;0.80;99.90
21778;DHT22;11050;52.222;20.916;2023-02-03T14:10:18;0.70;99.90
21778;DHT22;11050;52.222;20.916;2023-02-03T14:23:28;0.50;99.90
21778;DHT22;11050;52.222;20.916;2023-02-03T14:25:58;0.50;99.90
21778;DHT22;11050;52.222;20.916;2023-02-03T14:28:40;0.50;99.90
21778;DHT22;11050;52.222;20.916;2023-02-03T14:31:22;0.50;99.90
21778;DHT22;11050;52.222;20.916;2023-02-03T14:48:28;0.40;99.90
21778;DHT22;11050;52.222;20.916;2023-02-03T14:54:04;0.40;99.90
21778;DHT22;11050;52.222;20.916;2023-02-03T15:05:41;0.30;99.90
21778;DHT22;11050;52.222;20.916;2023-02-03T15:11:20;0.30;99.90
21778;DHT22;11050;52.222;20.916;2023-02-03T15:13:48;0.30;99.90
21778;DHT22;11050;52.222;20.916;2023-02-03T15:16:19;0.30;99.90
21778;DHT22;11050;52.222;20.916;2023-02-03T15:18:56;0.30;99.90
21778;DHT22;11050;52.222;20.916;2023-02-03T15:21:24;0.30;99.90
21778;DHT22;11050;52.222;20.916;2023-02-03T15:23:51;0.30;99.90
21778;DHT22;11050;52.222;20.916;2023-02-03T15:26:23;0.30;99.90
21778;DHT22;11050;52.222;20.916;2023-02-03T15:28:57;0.30;99.90
21778;DHT22;11050;52.222;20.916;2023-02-03T15:37:17;0.30;99.90
21778;DHT22;11050;52.222;20.916;2023-02-03T15:48:31;0.30;99.90
21778;DHT22;11050;52.222;20.916;2023-02-03T15:51:36;0.30;99.90
21778;DHT22;11050;52.222;20.916;2023-02-03T15:54:21;0.30;99.90
21778;DHT22;11050;52.222;20.916;2023-02-03T15:57:03;0.30;99.90
21778;DHT22;11050;52.222;20.916;2023-02-03T15:59:43;0.30;99.90
21778;DHT22;11050;52.222;20.916;2023-02-03T16:02:32;0.30;99.90
21778;DHT22;11050;52.222;20.916;2023-02-03T16:05:05;0.30;99.90
21778;DHT22;11050;52.222;20.916;2023-02-03T16:07:45;0.30;99.90
21778;DHT22;11050;52.222;20.916;2023-02-03T16:10:43;0.30;99.90
21778;DHT22;11050;52.222;20.916;2023-02-03T16:13:24;0.30;99.90
21778;DHT22;11050;52.222;20.916;2023-02-03T16:16:05;0.30;99.90
21778;DHT22;11050;52.222;20.916;2023-02-03T16:18:40;0.30;99.90
21778;DHT22;11050;52.222;20.916;2023-02-03T16:21:34;0.30;99.90
21778;DHT22;11050;52.222;20.916;2023-02-03T16:30:21;0.30;99.90
21778;DHT22;11050;52.222;20.916;2023-02-03T16:33:14;0.30;99.90
21778;DHT22;11050;52.222;20.916;2023-02-03T16:36:11;0.30;99.90
21778;DHT22;11050;52.222;20.916;2023-02-03T16:39:00;0.30;99.90
21778;DHT22;11050;52.222;20.916;2023-02-03T16:41:45;0.30;99.90
21778;DHT22;11050;52.222;20.916;2023-02-03T16:44:29;0.30;99.90
21778;DHT22;11050;52.222;20.916;2023-02-03T16:47:29;0.30;99.90
21778;DHT22;11050;52.222;20.916;2023-02-03T16:50:18;0.30;99.90
21778;DHT22;11050;52.222;20.916;2023-02-03T16:53:10;0.30;99.90
21778;DHT22;11050;52.222;20.916;2023-02-03T16:55:38;0.30;99.90
21778;DHT22;11050;52.222;20.916;2023-02-03T16:58:04;0.30;99.90
21778;DHT22;11050;52.222;20.916;2023-02-03T17:00:30;0.30;99.90
21778;DHT22;11050;52.222;20.916;2023-02-03T17:02:56;0.30;99.90
21778;DHT22;11050;52.222;20.916;2023-02-03T17:05:22;0.30;99.90
21778;DHT22;11050;52.222;20.916;2023-02-03T17:07:48;0.30;99.90
21778;DHT22;11050;52.222;20.916;2023-02-03T17:10:15;0.30;99.90
21778;DHT22;11050;52.222;20.916;2023-02-03T17:12:41;0.30;99.90
21778;DHT22;11050;52.222;20.916;2023-02-03T17:15:07;0.30;99.90
21778;DHT22;11050;52.222;20.916;2023-02-03T17:17:33;0.40;99.90
21778;DHT22;11050;52.222;20.916;2023-02-03T17:19:59;0.30;99.90
21778;DHT22;11050;52.222;20.916;2023-02-03T17:22:25;0.40;99.90
21778;DHT22;11050;52.222;20.916;2023-02-03T17:24:51;0.40;99.90
21778;DHT22;11050;52.222;20.916;2023-02-03T17:27:18;0.40;99.90
21778;DHT22;11050;52.222;20.916;2023-02-03T17:29:44;0.40;99.90
21778;DHT22;11050;52.222;20.916;2023-02-03T17:32:09;0.40;99.90
21778;DHT22;11050;52.222;20.916;2023-02-03T17:34:39;0.40;99.90
21778;DHT22;11050;52.222;20.916;2023-02-03T17:37:06;0.40;99.90
21778;DHT22;11050;52.222;20.916;2023-02-03T17:39:31;0.40;99.90
21778;DHT22;11050;52.222;20.916;2023-02-03T17:41:57;0.40;99.90
21778;DHT22;11050;52.222;20.916;2023-02-03T17:44:23;0.40;99.90
21778;DHT22;11050;52.222;20.916;2023-02-03T17:46:49;0.50;99.90
21778;DHT22;11050;52.222;20.916;2023-02-03T17:49:14;0.40;99.90
21778;DHT22;11050;52.222;20.916;2023-02-03T17:51:40;0.50;99.90
21778;DHT22;11050;52.222;20.916;2023-02-03T17:54:06;0.50;99.90
21778;DHT22;11050;52.222;20.916;2023-02-03T17:56:33;0.50;99.90
21778;DHT22;11050;52.222;20.916;2023-02-03T17:59:02;0.50;99.90
21778;DHT22;11050;52.222;20.916;2023-02-03T18:01:30;0.50;99.90
21778;DHT22;11050;52.222;20.916;2023-02-03T18:03:58;0.50;99.90
21778;DHT22;11050;52.222;20.916;2023-02-03T18:06:28;0.50;99.90
21778;DHT22;11050;52.222;20.916;2023-02-03T18:08:55;0.50;99.90
21778;DHT22;11050;52.222;20.916;2023-02-03T18:11:26;0.50;99.90
21778;DHT22;11050;52.222;20.916;2023-02-03T18:13:52;0.50;99.90
21778;DHT22;11050;52.222;20.916;2023-02-03T18:16:23;0.50;99.90
21778;DHT22;11050;52.222;20.916;2023-02-03T18:18:52;0.50;99.90
21778;DHT22;11050;52.222;20.916;2023-02-03T18:21:20;0.50;99.90
21778;DHT22;11050;52.222;20.916;2023-02-03T18:23:48;0.50;99.90
21778;DHT22;11050;52.222;20.916;2023-02-03T18:26:17;0.50;99.90
21778;DHT22;11050;52.222;20.916;2023-02-03T18:28:44;0.50;99.90
21778;DHT22;11050;52.222;20.916;2023-02-03T18:31:14;0.50;99.90
21778;DHT22;11050;52.222;20.916;2023-02-03T18:33:42;0.50;99.90
21778;DHT22;11050;52.222;20.916;2023-02-03T18:36:10;0.50;99.90
21778;DHT22;11050;52.222;20.916;2023-02-03T18:38:41;0.60;99.90
21778;DHT22;11050;52.222;20.916;2023-02-03T18:41:15;0.60;99.90
21778;DHT22;11050;52.222;20.916;2023-02-03T18:43:46;0.60;99.90
21778;DHT22;11050;52.222;20.916;2023-02-03T18:46:20;0.60;99.90
21778;DHT22;11050;52.222;20.916;2023-02-03T18:48:46;0.60;99.90
21778;DHT22;11050;52.222;20.916;2023-02-03T18:51:15;0.60;99.90
21778;DHT22;11050;52.222;20.916;2023-02-03T18:53:43;0.60;99.90
21778;DHT22;11050;52.222;20.916;2023-02-03T18:56:16;0.60;99.90
21778;DHT22;11050;52.222;20.916;2023-02-03T18:58:44;0.60;99.90
21778;DHT22;11050;52.222;20.916;2023-02-03T19:01:23;0.60;99.90
21778;DHT22;11050;52.222;20.916;2023-02-03T19:03:54;0.60;99.90
21778;DHT22;11050;52.222;20.916;2023-02-03T19:06:23;0.60;99.90
21778;DHT22;11050;52.222;20.916;2023-02-03T19:08:50;0.50;99.90
21778;DHT22;11050;52.222;20.916;2023-02-03T19:11:16;0.60;99.90
21778;DHT22;11050;52.222;20.916;2023-02-03T19:13:43;0.60;99.90
21778;DHT22;11050;52.222;20.916;2023-02-03T19:16:12;0.60;99.90
21778;DHT22;11050;52.222;20.916;2023-02-03T19:18:39;0.60;99.90
21778;DHT22;11050;52.222;20.916;2023-02-03T19:21:05;0.60;99.90
21778;DHT22;11050;52.222;20.916;2023-02-03T19:23:31;0.60;99.90